sensor_id;sensor_type;location;lat;lon;timestamp;P1;durP1;ratioP1;P2;durP2;ratioP2
71046;SDS011;58703;48.978;8.982;2022-12-28T00:00:24;12.07;;;7.05;;
71046;SDS011;58703;48.978;8.982;2022-12-28T00:02:50;13.82;;;7.97;;
71046;SDS011;58703;48.978;8.982;2022-12-28T00:05:16;13.43;;;8.20;;
71046;SDS011;58703;48.978;8.982;2022-12-28T00:07:45;14.57;;;7.70;;
71046;SDS011;58703;48.978;8.982;2022-12-28T00:10:11;13.30;;;7.28;;
71046;SDS011;58703;48.978;8.982;2022-12-28T00:12:36;13.20;;;7.40;;
71046;SDS011;58703;48.978;8.982;2022-12-28T00:15:02;15.88;;;7.90;;
71046;SDS011;58703;48.978;8.982;2022-12-28T00:17:27;15.97;;;8.10;;
71046;SDS011;58703;48.978;8.982;2022-12-28T00:19:53;15.25;;;8.20;;
71046;SDS011;58703;48.978;8.982;2022-12-28T00:22:18;16.60;;;7.67;;
71046;SDS011;58703;48.978;8.982;2022-12-28T00:24:44;12.67;;;7.00;;
71046;SDS011;58703;48.978;8.982;2022-12-28T00:27:09;12.50;;;7.90;;
71046;SDS011;58703;48.978;8.982;2022-12-28T00:29:36;10.27;;;5.93;;
71046;SDS011;58703;48.978;8.982;2022-12-28T00:32:02;17.73;;;8.45;;
71046;SDS011;58703;48.978;8.982;2022-12-28T00:34:27;14.13;;;7.53;;
71046;SDS011;58703;48.978;8.982;2022-12-28T00:36:53;15.48;;;8.27;;
71046;SDS011;58703;48.978;8.982;2022-12-28T00:39:19;11.63;;;6.47;;
71046;SDS011;58703;48.978;8.982;2022-12-28T00:41:44;13.10;;;6.72;;
71046;SDS011;58703;48.978;8.982;2022-12-28T00:44:10;14.10;;;7.27;;
71046;SDS011;58703;48.978;8.982;2022-12-28T00:46:37;12.27;;;6.30;;
71046;SDS011;58703;48.978;8.982;2022-12-28T00:49:02;14.00;;;7.07;;
71046;SDS011;58703;48.978;8.982;2022-12-28T00:51:28;13.37;;;7.47;;
71046;SDS011;58703;48.978;8.982;2022-12-28T00:53:53;18.73;;;7.43;;
71046;SDS011;58703;48.978;8.982;2022-12-28T00:56:20;11.73;;;7.07;;
71046;SDS011;58703;48.978;8.982;2022-12-28T00:58:46;15.05;;;8.43;;
71046;SDS011;58703;48.978;8.982;2022-12-28T01:01:14;13.82;;;7.50;;
71046;SDS011;58703;48.978;8.982;2022-12-28T01:03:44;15.07;;;7.80;;
71046;SDS011;58703;48.978;8.982;2022-12-28T01:06:14;13.93;;;6.33;;
71046;SDS011;58703;48.978;8.982;2022-12-28T01:08:42;12.82;;;6.95;;
71046;SDS011;58703;48.978;8.982;2022-12-28T01:11:09;12.95;;;6.75;;
71046;SDS011;58703;48.978;8.982;2022-12-28T01:13:38;11.88;;;7.18;;
71046;SDS011;58703;48.978;8.982;2022-12-28T01:16:20;12.07;;;6.20;;
71046;SDS011;58703;48.978;8.982;2022-12-28T01:18:49;14.70;;;6.32;;
71046;SDS011;58703;48.978;8.982;2022-12-28T01:21:17;13.82;;;9.27;;
71046;SDS011;58703;48.978;8.982;2022-12-28T01:23:44;11.45;;;6.15;;
71046;SDS011;58703;48.978;8.982;2022-12-28T01:26:11;9.30;;;5.80;;
71046;SDS011;58703;48.978;8.982;2022-12-28T01:28:37;11.35;;;5.47;;
71046;SDS011;58703;48.978;8.982;2022-12-28T01:31:06;11.68;;;6.65;;
71046;SDS011;58703;48.978;8.982;2022-12-28T01:33:37;10.47;;;6.13;;
71046;SDS011;58703;48.978;8.982;2022-12-28T01:36:07;10.40;;;6.93;;
71046;SDS011;58703;48.978;8.982;2022-12-28T01:38:35;10.43;;;6.10;;
71046;SDS011;58703;48.978;8.982;2022-12-28T01:41:01;12.68;;;6.28;;
71046;SDS011;58703;48.978;8.982;2022-12-28T01:46:06;7.82;;;5.45;;
71046;SDS011;58703;48.978;8.982;2022-12-28T01:48:35;10.52;;;5.90;;
71046;SDS011;58703;48.978;8.982;2022-12-28T01:51:10;8.50;;;5.43;;
71046;SDS011;58703;48.978;8.982;2022-12-28T01:53:36;8.98;;;5.55;;
71046;SDS011;58703;48.978;8.982;2022-12-28T01:56:03;9.57;;;5.60;;
71046;SDS011;58703;48.978;8.982;2022-12-28T01:58:29;9.73;;;5.80;;
71046;SDS011;58703;48.978;8.982;2022-12-28T02:00:56;10.80;;;5.90;;
71046;SDS011;58703;48.978;8.982;2022-12-28T02:03:24;10.55;;;6.18;;
71046;SDS011;58703;48.978;8.982;2022-12-28T02:05:53;8.53;;;5.80;;
71046;SDS011;58703;48.978;8.982;2022-12-28T02:11:20;8.63;;;4.88;;
71046;SDS011;58703;48.978;8.982;2022-12-28T02:13:48;10.77;;;5.40;;
71046;SDS011;58703;48.978;8.982;2022-12-28T02:16:17;10.55;;;5.88;;
71046;SDS011;58703;48.978;8.982;2022-12-28T02:18:44;10.15;;;5.65;;
71046;SDS011;58703;48.978;8.982;2022-12-28T02:29:36;10.73;;;5.80;;
71046;SDS011;58703;48.978;8.982;2022-12-28T02:35:32;10.38;;;4.63;;
71046;SDS011;58703;48.978;8.982;2022-12-28T02:38:00;8.07;;;5.07;;
71046;SDS011;58703;48.978;8.982;2022-12-28T02:40:41;12.90;;;5.63;;
71046;SDS011;58703;48.978;8.982;2022-12-28T02:43:15;8.60;;;5.38;;
71046;SDS011;58703;48.978;8.982;2022-12-28T02:45:47;9.32;;;5.85;;
71046;SDS011;58703;48.978;8.982;2022-12-28T02:48:53;10.60;;;6.20;;
71046;SDS011;58703;48.978;8.982;2022-12-28T02:51:55;17.20;;;6.13;;
71046;SDS011;58703;48.978;8.982;2022-12-28T02:58:03;14.43;;;5.97;;
71046;SDS011;58703;48.978;8.982;2022-12-28T03:06:14;12.25;;;6.28;;
71046;SDS011;58703;48.978;8.982;2022-12-28T03:09:27;9.77;;;6.03;;
71046;SDS011;58703;48.978;8.982;2022-12-28T03:12:08;10.75;;;6.32;;
71046;SDS011;58703;48.978;8.982;2022-12-28T03:14:47;12.93;;;6.50;;
71046;SDS011;58703;48.978;8.982;2022-12-28T03:17:22;12.25;;;6.57;;
71046;SDS011;58703;48.978;8.982;2022-12-28T03:20:10;7.80;;;6.28;;
71046;SDS011;58703;48.978;8.982;2022-12-28T03:22:58;11.90;;;6.83;;
71046;SDS011;58703;48.978;8.982;2022-12-28T03:25:43;10.88;;;6.75;;
71046;SDS011;58703;48.978;8.982;2022-12-28T03:28:30;13.52;;;6.82;;
71046;SDS011;58703;48.978;8.982;2022-12-28T03:31:18;12.23;;;5.60;;
71046;SDS011;58703;48.978;8.982;2022-12-28T03:33:48;9.63;;;6.47;;
71046;SDS011;58703;48.978;8.982;2022-12-28T03:36:25;21.90;;;8.57;;
71046;SDS011;58703;48.978;8.982;2022-12-28T03:39:04;18.23;;;8.60;;
71046;SDS011;58703;48.978;8.982;2022-12-28T03:42:15;15.45;;;7.90;;
71046;SDS011;58703;48.978;8.982;2022-12-28T03:47:59;9.93;;;5.25;;
71046;SDS011;58703;48.978;8.982;2022-12-28T03:50:27;10.00;;;5.13;;
71046;SDS011;58703;48.978;8.982;2022-12-28T03:52:56;9.27;;;6.10;;
71046;SDS011;58703;48.978;8.982;2022-12-28T03:55:23;11.80;;;5.78;;
71046;SDS011;58703;48.978;8.982;2022-12-28T03:57:50;9.93;;;4.75;;
71046;SDS011;58703;48.978;8.982;2022-12-28T04:00:16;9.88;;;4.65;;
71046;SDS011;58703;48.978;8.982;2022-12-28T04:02:42;8.40;;;4.40;;
71046;SDS011;58703;48.978;8.982;2022-12-28T04:05:07;9.27;;;4.95;;
71046;SDS011;58703;48.978;8.982;2022-12-28T04:07:33;9.30;;;4.50;;
71046;SDS011;58703;48.978;8.982;2022-12-28T04:09:59;6.68;;;4.15;;
71046;SDS011;58703;48.978;8.982;2022-12-28T04:12:25;7.63;;;4.30;;
71046;SDS011;58703;48.978;8.982;2022-12-28T04:14:51;8.20;;;4.90;;
71046;SDS011;58703;48.978;8.982;2022-12-28T04:17:16;11.98;;;5.43;;
71046;SDS011;58703;48.978;8.982;2022-12-28T04:19:43;7.38;;;4.60;;
71046;SDS011;58703;48.978;8.982;2022-12-28T04:22:09;10.07;;;5.68;;
71046;SDS011;58703;48.978;8.982;2022-12-28T04:24:34;11.20;;;5.50;;
71046;SDS011;58703;48.978;8.982;2022-12-28T04:27:00;16.47;;;8.07;;
71046;SDS011;58703;48.978;8.982;2022-12-28T04:29:27;10.35;;;5.05;;
71046;SDS011;58703;48.978;8.982;2022-12-28T04:31:52;5.85;;;4.38;;
71046;SDS011;58703;48.978;8.982;2022-12-28T04:34:18;7.67;;;5.40;;
71046;SDS011;58703;48.978;8.982;2022-12-28T04:36:43;9.30;;;5.63;;
71046;SDS011;58703;48.978;8.982;2022-12-28T04:39:09;12.70;;;6.25;;
71046;SDS011;58703;48.978;8.982;2022-12-28T04:41:35;9.48;;;6.28;;
71046;SDS011;58703;48.978;8.982;2022-12-28T04:44:00;9.20;;;5.73;;
71046;SDS011;58703;48.978;8.982;2022-12-28T04:46:27;11.00;;;6.55;;
71046;SDS011;58703;48.978;8.982;2022-12-28T04:48:52;13.32;;;8.30;;
71046;SDS011;58703;48.978;8.982;2022-12-28T04:51:19;9.13;;;6.32;;
71046;SDS011;58703;48.978;8.982;2022-12-28T04:53:50;10.07;;;6.00;;
71046;SDS011;58703;48.978;8.982;2022-12-28T04:56:16;8.70;;;5.43;;
71046;SDS011;58703;48.978;8.982;2022-12-28T04:58:43;12.20;;;5.28;;
71046;SDS011;58703;48.978;8.982;2022-12-28T05:01:16;9.57;;;5.10;;
71046;SDS011;58703;48.978;8.982;2022-12-28T05:03:43;7.80;;;4.70;;
71046;SDS011;58703;48.978;8.982;2022-12-28T05:06:11;9.02;;;5.18;;
71046;SDS011;58703;48.978;8.982;2022-12-28T05:08:40;9.02;;;5.13;;
71046;SDS011;58703;48.978;8.982;2022-12-28T05:11:07;7.43;;;4.53;;
71046;SDS011;58703;48.978;8.982;2022-12-28T05:13:37;10.23;;;5.00;;
71046;SDS011;58703;48.978;8.982;2022-12-28T05:16:04;7.22;;;4.50;;
71046;SDS011;58703;48.978;8.982;2022-12-28T05:18:33;8.40;;;5.07;;
71046;SDS011;58703;48.978;8.982;2022-12-28T05:21:17;8.02;;;4.97;;
71046;SDS011;58703;48.978;8.982;2022-12-28T05:23:44;9.45;;;5.47;;
71046;SDS011;58703;48.978;8.982;2022-12-28T05:26:11;7.72;;;5.43;;
71046;SDS011;58703;48.978;8.982;2022-12-28T05:28:39;10.48;;;5.72;;
71046;SDS011;58703;48.978;8.982;2022-12-28T05:31:06;7.90;;;5.68;;
71046;SDS011;58703;48.978;8.982;2022-12-28T05:33:36;11.10;;;5.60;;
71046;SDS011;58703;48.978;8.982;2022-12-28T05:36:03;8.90;;;5.65;;
71046;SDS011;58703;48.978;8.982;2022-12-28T05:38:33;8.45;;;5.78;;
71046;SDS011;58703;48.978;8.982;2022-12-28T05:41:06;9.57;;;5.47;;
71046;SDS011;58703;48.978;8.982;2022-12-28T05:43:40;7.35;;;4.15;;
71046;SDS011;58703;48.978;8.982;2022-12-28T05:46:08;8.13;;;5.00;;
71046;SDS011;58703;48.978;8.982;2022-12-28T05:48:38;8.40;;;5.90;;
71046;SDS011;58703;48.978;8.982;2022-12-28T05:51:14;8.38;;;5.25;;
71046;SDS011;58703;48.978;8.982;2022-12-28T05:53:42;10.20;;;5.40;;
71046;SDS011;58703;48.978;8.982;2022-12-28T05:56:12;10.77;;;6.28;;
71046;SDS011;58703;48.978;8.982;2022-12-28T05:58:42;11.60;;;6.85;;
71046;SDS011;58703;48.978;8.982;2022-12-28T06:01:12;12.45;;;7.53;;
71046;SDS011;58703;48.978;8.982;2022-12-28T06:03:40;26.10;;;15.00;;
71046;SDS011;58703;48.978;8.982;2022-12-28T06:06:13;14.10;;;9.37;;
71046;SDS011;58703;48.978;8.982;2022-12-28T06:08:41;11.40;;;6.65;;
71046;SDS011;58703;48.978;8.982;2022-12-28T06:11:08;9.13;;;6.03;;
71046;SDS011;58703;48.978;8.982;2022-12-28T06:13:35;7.82;;;4.75;;
71046;SDS011;58703;48.978;8.982;2022-12-28T06:16:05;12.32;;;5.82;;
71046;SDS011;58703;48.978;8.982;2022-12-28T06:18:32;12.47;;;5.43;;
71046;SDS011;58703;48.978;8.982;2022-12-28T06:21:07;12.65;;;5.13;;
71046;SDS011;58703;48.978;8.982;2022-12-28T06:23:35;7.32;;;4.53;;
71046;SDS011;58703;48.978;8.982;2022-12-28T06:26:03;9.80;;;4.40;;
71046;SDS011;58703;48.978;8.982;2022-12-28T06:28:29;9.23;;;5.00;;
71046;SDS011;58703;48.978;8.982;2022-12-28T06:31:05;8.02;;;4.18;;
71046;SDS011;58703;48.978;8.982;2022-12-28T06:33:32;7.28;;;4.70;;
71046;SDS011;58703;48.978;8.982;2022-12-28T06:35:59;12.95;;;6.68;;
71046;SDS011;58703;48.978;8.982;2022-12-28T06:38:25;12.07;;;6.15;;
71046;SDS011;58703;48.978;8.982;2022-12-28T06:40:51;11.63;;;6.72;;
71046;SDS011;58703;48.978;8.982;2022-12-28T06:43:17;17.23;;;6.80;;
71046;SDS011;58703;48.978;8.982;2022-12-28T06:45:52;14.17;;;7.17;;
71046;SDS011;58703;48.978;8.982;2022-12-28T06:48:18;16.30;;;8.57;;
71046;SDS011;58703;48.978;8.982;2022-12-28T06:50:52;23.23;;;12.80;;
71046;SDS011;58703;48.978;8.982;2022-12-28T06:53:20;27.00;;;15.15;;
71046;SDS011;58703;48.978;8.982;2022-12-28T06:55:52;30.85;;;15.48;;
71046;SDS011;58703;48.978;8.982;2022-12-28T06:58:22;24.33;;;13.65;;
71046;SDS011;58703;48.978;8.982;2022-12-28T07:00:48;21.50;;;12.98;;
71046;SDS011;58703;48.978;8.982;2022-12-28T07:03:14;20.57;;;11.30;;
71046;SDS011;58703;48.978;8.982;2022-12-28T07:05:40;15.55;;;10.07;;
71046;SDS011;58703;48.978;8.982;2022-12-28T07:08:06;20.35;;;12.90;;
71046;SDS011;58703;48.978;8.982;2022-12-28T07:10:32;14.52;;;9.15;;
71046;SDS011;58703;48.978;8.982;2022-12-28T07:12:58;15.40;;;8.50;;
71046;SDS011;58703;48.978;8.982;2022-12-28T07:15:24;13.25;;;7.13;;
71046;SDS011;58703;48.978;8.982;2022-12-28T07:17:50;13.30;;;7.45;;
71046;SDS011;58703;48.978;8.982;2022-12-28T07:20:16;10.20;;;6.63;;
71046;SDS011;58703;48.978;8.982;2022-12-28T07:22:41;11.48;;;6.00;;
71046;SDS011;58703;48.978;8.982;2022-12-28T07:25:09;12.70;;;8.27;;
71046;SDS011;58703;48.978;8.982;2022-12-28T07:27:34;12.90;;;7.47;;
71046;SDS011;58703;48.978;8.982;2022-12-28T07:30:00;13.30;;;8.33;;
71046;SDS011;58703;48.978;8.982;2022-12-28T07:32:26;13.38;;;8.25;;
71046;SDS011;58703;48.978;8.982;2022-12-28T07:34:52;10.67;;;7.47;;
71046;SDS011;58703;48.978;8.982;2022-12-28T07:37:17;15.57;;;8.70;;
71046;SDS011;58703;48.978;8.982;2022-12-28T07:39:44;18.42;;;10.57;;
71046;SDS011;58703;48.978;8.982;2022-12-28T07:42:10;23.38;;;8.20;;
71046;SDS011;58703;48.978;8.982;2022-12-28T07:44:39;18.70;;;8.65;;
71046;SDS011;58703;48.978;8.982;2022-12-28T07:47:10;23.83;;;10.25;;
71046;SDS011;58703;48.978;8.982;2022-12-28T07:49:35;20.95;;;7.95;;
71046;SDS011;58703;48.978;8.982;2022-12-28T07:52:01;11.10;;;5.63;;
71046;SDS011;58703;48.978;8.982;2022-12-28T07:54:27;8.55;;;5.22;;
71046;SDS011;58703;48.978;8.982;2022-12-28T07:56:54;6.60;;;5.10;;
71046;SDS011;58703;48.978;8.982;2022-12-28T07:59:19;7.93;;;4.28;;
71046;SDS011;58703;48.978;8.982;2022-12-28T08:01:45;6.87;;;4.30;;
71046;SDS011;58703;48.978;8.982;2022-12-28T08:04:13;7.53;;;3.85;;
71046;SDS011;58703;48.978;8.982;2022-12-28T08:06:40;8.27;;;4.60;;
71046;SDS011;58703;48.978;8.982;2022-12-28T08:09:08;16.90;;;8.18;;
71046;SDS011;58703;48.978;8.982;2022-12-28T08:11:37;11.13;;;5.78;;
71046;SDS011;58703;48.978;8.982;2022-12-28T08:14:04;15.68;;;6.57;;
71046;SDS011;58703;48.978;8.982;2022-12-28T08:16:31;12.05;;;6.10;;
71046;SDS011;58703;48.978;8.982;2022-12-28T08:18:59;16.37;;;7.03;;
71046;SDS011;58703;48.978;8.982;2022-12-28T08:21:26;26.95;;;13.45;;
71046;SDS011;58703;48.978;8.982;2022-12-28T08:23:54;13.05;;;7.75;;
71046;SDS011;58703;48.978;8.982;2022-12-28T08:26:21;9.60;;;5.53;;
71046;SDS011;58703;48.978;8.982;2022-12-28T08:28:57;10.88;;;5.03;;
71046;SDS011;58703;48.978;8.982;2022-12-28T08:31:29;16.70;;;6.85;;
71046;SDS011;58703;48.978;8.982;2022-12-28T08:33:57;19.45;;;9.60;;
71046;SDS011;58703;48.978;8.982;2022-12-28T08:36:23;10.98;;;6.40;;
71046;SDS011;58703;48.978;8.982;2022-12-28T08:38:49;11.30;;;7.20;;
71046;SDS011;58703;48.978;8.982;2022-12-28T08:41:15;20.95;;;9.60;;
71046;SDS011;58703;48.978;8.982;2022-12-28T08:43:44;12.47;;;6.43;;
71046;SDS011;58703;48.978;8.982;2022-12-28T08:46:15;21.00;;;10.48;;
71046;SDS011;58703;48.978;8.982;2022-12-28T08:48:44;16.25;;;8.85;;
71046;SDS011;58703;48.978;8.982;2022-12-28T08:51:12;14.25;;;7.75;;
71046;SDS011;58703;48.978;8.982;2022-12-28T08:53:41;11.98;;;7.05;;
71046;SDS011;58703;48.978;8.982;2022-12-28T08:56:08;7.63;;;4.60;;
71046;SDS011;58703;48.978;8.982;2022-12-28T08:58:40;6.70;;;3.50;;
71046;SDS011;58703;48.978;8.982;2022-12-28T09:01:11;10.77;;;4.53;;
71046;SDS011;58703;48.978;8.982;2022-12-28T09:03:48;33.30;;;15.73;;
71046;SDS011;58703;48.978;8.982;2022-12-28T09:06:20;30.08;;;15.10;;
71046;SDS011;58703;48.978;8.982;2022-12-28T09:08:50;24.77;;;10.93;;
71046;SDS011;58703;48.978;8.982;2022-12-28T09:11:18;16.27;;;6.07;;
71046;SDS011;58703;48.978;8.982;2022-12-28T09:13:44;15.30;;;7.57;;
71046;SDS011;58703;48.978;8.982;2022-12-28T09:16:11;8.63;;;4.03;;
71046;SDS011;58703;48.978;8.982;2022-12-28T09:18:39;11.93;;;4.72;;
71046;SDS011;58703;48.978;8.982;2022-12-28T09:21:09;19.50;;;9.07;;
71046;SDS011;58703;48.978;8.982;2022-12-28T09:23:41;16.88;;;9.80;;
71046;SDS011;58703;48.978;8.982;2022-12-28T09:26:10;23.45;;;6.80;;
71046;SDS011;58703;48.978;8.982;2022-12-28T09:28:46;22.83;;;8.60;;
71046;SDS011;58703;48.978;8.982;2022-12-28T09:31:15;30.75;;;12.05;;
71046;SDS011;58703;48.978;8.982;2022-12-28T09:33:41;28.42;;;11.73;;
71046;SDS011;58703;48.978;8.982;2022-12-28T09:36:30;25.63;;;12.25;;
71046;SDS011;58703;48.978;8.982;2022-12-28T09:38:57;22.42;;;9.80;;
71046;SDS011;58703;48.978;8.982;2022-12-28T09:44:21;11.50;;;5.10;;
71046;SDS011;58703;48.978;8.982;2022-12-28T09:46:57;10.88;;;4.82;;
71046;SDS011;58703;48.978;8.982;2022-12-28T09:49:32;8.95;;;3.97;;
71046;SDS011;58703;48.978;8.982;2022-12-28T09:52:24;7.50;;;2.40;;
71046;SDS011;58703;48.978;8.982;2022-12-28T09:54:48;7.60;;;4.47;;
71046;SDS011;58703;48.978;8.982;2022-12-28T09:57:15;8.68;;;3.55;;
71046;SDS011;58703;48.978;8.982;2022-12-28T09:59:43;6.85;;;3.97;;
71046;SDS011;58703;48.978;8.982;2022-12-28T10:02:30;21.98;;;9.82;;
71046;SDS011;58703;48.978;8.982;2022-12-28T10:04:58;10.48;;;4.45;;
71046;SDS011;58703;48.978;8.982;2022-12-28T10:07:25;14.65;;;6.07;;
71046;SDS011;58703;48.978;8.982;2022-12-28T10:09:50;25.25;;;12.90;;
71046;SDS011;58703;48.978;8.982;2022-12-28T10:12:17;22.00;;;10.47;;
71046;SDS011;58703;48.978;8.982;2022-12-28T10:14:46;43.33;;;17.63;;
71046;SDS011;58703;48.978;8.982;2022-12-28T10:17:13;24.65;;;11.63;;
71046;SDS011;58703;48.978;8.982;2022-12-28T10:19:44;21.88;;;10.65;;
71046;SDS011;58703;48.978;8.982;2022-12-28T10:22:18;17.55;;;8.45;;
71046;SDS011;58703;48.978;8.982;2022-12-28T10:24:45;17.15;;;8.18;;
71046;SDS011;58703;48.978;8.982;2022-12-28T10:27:22;10.60;;;5.60;;
71046;SDS011;58703;48.978;8.982;2022-12-28T10:29:50;4.28;;;2.72;;
71046;SDS011;58703;48.978;8.982;2022-12-28T10:32:16;16.42;;;8.13;;
71046;SDS011;58703;48.978;8.982;2022-12-28T10:35:05;2.63;;;1.10;;
71046;SDS011;58703;48.978;8.982;2022-12-28T10:37:31;2.30;;;0.80;;
71046;SDS011;58703;48.978;8.982;2022-12-28T10:40:00;3.65;;;0.57;;
71046;SDS011;58703;48.978;8.982;2022-12-28T10:42:35;2.20;;;0.70;;
71046;SDS011;58703;48.978;8.982;2022-12-28T10:45:05;1.63;;;0.60;;
71046;SDS011;58703;48.978;8.982;2022-12-28T10:47:43;2.20;;;0.70;;
71046;SDS011;58703;48.978;8.982;2022-12-28T10:53:19;0.73;;;0.57;;
71046;SDS011;58703;48.978;8.982;2022-12-28T10:55:59;1.42;;;0.57;;
71046;SDS011;58703;48.978;8.982;2022-12-28T10:58:26;1.48;;;0.63;;
71046;SDS011;58703;48.978;8.982;2022-12-28T11:00:57;0.90;;;0.30;;
71046;SDS011;58703;48.978;8.982;2022-12-28T11:03:28;1.67;;;0.55;;
71046;SDS011;58703;48.978;8.982;2022-12-28T11:06:14;0.73;;;0.50;;
71046;SDS011;58703;48.978;8.982;2022-12-28T11:08:42;0.95;;;0.75;;
71046;SDS011;58703;48.978;8.982;2022-12-28T11:11:20;3.15;;;1.10;;
71046;SDS011;58703;48.978;8.982;2022-12-28T11:14:05;3.47;;;1.20;;
71046;SDS011;58703;48.978;8.982;2022-12-28T11:16:35;7.72;;;0.90;;
71046;SDS011;58703;48.978;8.982;2022-12-28T11:19:02;1.38;;;0.82;;
71046;SDS011;58703;48.978;8.982;2022-12-28T11:21:29;0.88;;;0.52;;
71046;SDS011;58703;48.978;8.982;2022-12-28T11:23:55;2.45;;;0.50;;
71046;SDS011;58703;48.978;8.982;2022-12-28T11:26:22;1.73;;;0.50;;
71046;SDS011;58703;48.978;8.982;2022-12-28T11:28:51;2.00;;;0.75;;
71046;SDS011;58703;48.978;8.982;2022-12-28T11:31:22;0.95;;;0.70;;
71046;SDS011;58703;48.978;8.982;2022-12-28T11:33:53;2.92;;;1.67;;
71046;SDS011;58703;48.978;8.982;2022-12-28T11:36:23;6.50;;;2.70;;
71046;SDS011;58703;48.978;8.982;2022-12-28T11:38:53;4.70;;;2.25;;
71046;SDS011;58703;48.978;8.982;2022-12-28T11:43:52;7.35;;;3.20;;
71046;SDS011;58703;48.978;8.982;2022-12-28T11:48:45;4.40;;;2.07;;
71046;SDS011;58703;48.978;8.982;2022-12-28T11:51:20;25.25;;;10.93;;
71046;SDS011;58703;48.978;8.982;2022-12-28T11:54:00;21.27;;;9.90;;
71046;SDS011;58703;48.978;8.982;2022-12-28T11:59:22;3.13;;;1.90;;
71046;SDS011;58703;48.978;8.982;2022-12-28T12:01:55;2.65;;;1.42;;
71046;SDS011;58703;48.978;8.982;2022-12-28T12:04:34;3.83;;;1.70;;
71046;SDS011;58703;48.978;8.982;2022-12-28T12:07:05;2.95;;;1.25;;
71046;SDS011;58703;48.978;8.982;2022-12-28T12:12:31;2.27;;;0.80;;
71046;SDS011;58703;48.978;8.982;2022-12-28T12:14:55;8.43;;;3.28;;
71046;SDS011;58703;48.978;8.982;2022-12-28T12:19:59;2.28;;;0.80;;
71046;SDS011;58703;48.978;8.982;2022-12-28T12:22:27;3.20;;;1.13;;
71046;SDS011;58703;48.978;8.982;2022-12-28T12:25:03;1.47;;;0.70;;
71046;SDS011;58703;48.978;8.982;2022-12-28T12:27:44;1.45;;;0.45;;
71046;SDS011;58703;48.978;8.982;2022-12-28T12:30:19;0.52;;;0.52;;
71046;SDS011;58703;48.978;8.982;2022-12-28T12:32:59;1.67;;;0.50;;
71046;SDS011;58703;48.978;8.982;2022-12-28T12:35:29;0.70;;;0.60;;
71046;SDS011;58703;48.978;8.982;2022-12-28T12:38:01;1.13;;;0.60;;
71046;SDS011;58703;48.978;8.982;2022-12-28T12:45:52;1.33;;;0.60;;
71046;SDS011;58703;48.978;8.982;2022-12-28T12:51:41;0.50;;;0.43;;
71046;SDS011;58703;48.978;8.982;2022-12-28T12:54:28;1.00;;;0.40;;
71046;SDS011;58703;48.978;8.982;2022-12-28T12:57:20;2.33;;;0.52;;
71046;SDS011;58703;48.978;8.982;2022-12-28T13:00:02;0.50;;;0.40;;
71046;SDS011;58703;48.978;8.982;2022-12-28T13:05:21;1.33;;;0.60;;
71046;SDS011;58703;48.978;8.982;2022-12-28T13:07:49;4.78;;;0.65;;
71046;SDS011;58703;48.978;8.982;2022-12-28T13:10:50;0.55;;;0.43;;
71046;SDS011;58703;48.978;8.982;2022-12-28T13:13:16;4.22;;;1.55;;
71046;SDS011;58703;48.978;8.982;2022-12-28T13:15:47;2.47;;;0.80;;
71046;SDS011;58703;48.978;8.982;2022-12-28T13:18:15;1.27;;;0.90;;
71046;SDS011;58703;48.978;8.982;2022-12-28T13:20:56;2.88;;;1.40;;
71046;SDS011;58703;48.978;8.982;2022-12-28T13:23:24;1.33;;;0.68;;
71046;SDS011;58703;48.978;8.982;2022-12-28T13:25:51;0.68;;;0.40;;
71046;SDS011;58703;48.978;8.982;2022-12-28T13:28:22;1.17;;;0.63;;
71046;SDS011;58703;48.978;8.982;2022-12-28T13:34:02;0.75;;;0.65;;
71046;SDS011;58703;48.978;8.982;2022-12-28T13:36:30;2.15;;;1.00;;
71046;SDS011;58703;48.978;8.982;2022-12-28T13:39:07;3.83;;;1.20;;
71046;SDS011;58703;48.978;8.982;2022-12-28T13:41:36;4.87;;;1.53;;
71046;SDS011;58703;48.978;8.982;2022-12-28T13:44:10;2.42;;;1.20;;
71046;SDS011;58703;48.978;8.982;2022-12-28T13:46:43;1.70;;;1.17;;
71046;SDS011;58703;48.978;8.982;2022-12-28T13:49:14;1.30;;;0.93;;
71046;SDS011;58703;48.978;8.982;2022-12-28T13:51:42;1.17;;;0.80;;
71046;SDS011;58703;48.978;8.982;2022-12-28T13:54:08;2.17;;;0.57;;
71046;SDS011;58703;48.978;8.982;2022-12-28T13:56:35;0.88;;;0.88;;
71046;SDS011;58703;48.978;8.982;2022-12-28T13:59:06;0.47;;;0.43;;
71046;SDS011;58703;48.978;8.982;2022-12-28T14:01:37;0.88;;;0.77;;
71046;SDS011;58703;48.978;8.982;2022-12-28T14:04:06;1.10;;;0.47;;
71046;SDS011;58703;48.978;8.982;2022-12-28T14:06:36;1.10;;;0.82;;
71046;SDS011;58703;48.978;8.982;2022-12-28T14:09:03;1.90;;;1.33;;
71046;SDS011;58703;48.978;8.982;2022-12-28T14:11:29;1.90;;;1.07;;
71046;SDS011;58703;48.978;8.982;2022-12-28T14:13:55;3.42;;;1.70;;
71046;SDS011;58703;48.978;8.982;2022-12-28T14:16:23;2.85;;;2.15;;
71046;SDS011;58703;48.978;8.982;2022-12-28T14:18:49;2.15;;;1.15;;
71046;SDS011;58703;48.978;8.982;2022-12-28T14:21:29;2.03;;;1.20;;
71046;SDS011;58703;48.978;8.982;2022-12-28T14:24:03;2.75;;;1.15;;
71046;SDS011;58703;48.978;8.982;2022-12-28T14:26:31;2.20;;;1.00;;
71046;SDS011;58703;48.978;8.982;2022-12-28T14:28:58;3.25;;;1.38;;
71046;SDS011;58703;48.978;8.982;2022-12-28T14:31:28;2.10;;;1.63;;
71046;SDS011;58703;48.978;8.982;2022-12-28T14:34:01;7.00;;;2.70;;
71046;SDS011;58703;48.978;8.982;2022-12-28T14:36:30;1.10;;;1.00;;
71046;SDS011;58703;48.978;8.982;2022-12-28T14:39:00;1.48;;;1.30;;
71046;SDS011;58703;48.978;8.982;2022-12-28T14:44:06;7.28;;;3.47;;
71046;SDS011;58703;48.978;8.982;2022-12-28T14:46:39;3.67;;;2.00;;
71046;SDS011;58703;48.978;8.982;2022-12-28T14:57:21;3.30;;;1.83;;
71046;SDS011;58703;48.978;8.982;2022-12-28T15:00:02;1.77;;;1.10;;
71046;SDS011;58703;48.978;8.982;2022-12-28T15:05:00;2.15;;;0.95;;
71046;SDS011;58703;48.978;8.982;2022-12-28T15:07:27;3.00;;;1.00;;
71046;SDS011;58703;48.978;8.982;2022-12-28T15:09:54;6.47;;;2.10;;
71046;SDS011;58703;48.978;8.982;2022-12-28T15:12:20;2.38;;;1.23;;
71046;SDS011;58703;48.978;8.982;2022-12-28T15:14:48;4.07;;;1.60;;
71046;SDS011;58703;48.978;8.982;2022-12-28T15:17:15;1.40;;;0.98;;
71046;SDS011;58703;48.978;8.982;2022-12-28T15:19:43;4.10;;;1.40;;
71046;SDS011;58703;48.978;8.982;2022-12-28T15:22:11;7.57;;;1.40;;
71046;SDS011;58703;48.978;8.982;2022-12-28T15:24:38;3.25;;;1.60;;
71046;SDS011;58703;48.978;8.982;2022-12-28T15:27:06;13.15;;;4.13;;
71046;SDS011;58703;48.978;8.982;2022-12-28T15:29:33;2.35;;;1.30;;
71046;SDS011;58703;48.978;8.982;2022-12-28T15:32:00;3.80;;;1.48;;
71046;SDS011;58703;48.978;8.982;2022-12-28T15:34:25;9.98;;;4.22;;
71046;SDS011;58703;48.978;8.982;2022-12-28T15:36:52;22.47;;;7.07;;
71046;SDS011;58703;48.978;8.982;2022-12-28T15:39:18;4.82;;;2.33;;
71046;SDS011;58703;48.978;8.982;2022-12-28T15:41:44;16.40;;;4.57;;
71046;SDS011;58703;48.978;8.982;2022-12-28T15:44:12;12.82;;;6.72;;
71046;SDS011;58703;48.978;8.982;2022-12-28T15:46:41;10.55;;;3.45;;
71046;SDS011;58703;48.978;8.982;2022-12-28T15:49:09;7.32;;;3.20;;
71046;SDS011;58703;48.978;8.982;2022-12-28T15:51:39;4.18;;;2.58;;
71046;SDS011;58703;48.978;8.982;2022-12-28T15:54:06;4.30;;;2.40;;
71046;SDS011;58703;48.978;8.982;2022-12-28T15:56:34;5.35;;;2.53;;
71046;SDS011;58703;48.978;8.982;2022-12-28T15:59:03;3.13;;;1.50;;
71046;SDS011;58703;48.978;8.982;2022-12-28T16:01:32;2.47;;;1.52;;
71046;SDS011;58703;48.978;8.982;2022-12-28T16:03:59;4.32;;;1.70;;
71046;SDS011;58703;48.978;8.982;2022-12-28T16:06:28;1.73;;;1.37;;
71046;SDS011;58703;48.978;8.982;2022-12-28T16:08:56;2.05;;;1.27;;
71046;SDS011;58703;48.978;8.982;2022-12-28T16:11:25;1.60;;;0.90;;
71046;SDS011;58703;48.978;8.982;2022-12-28T16:13:55;2.05;;;1.33;;